sensor_id;sensor_type;location;lat;lon;timestamp;P1;durP1;ratioP1;P2;durP2;ratioP2
78903;SDS011;68291;49.602;8.722;2023-06-14T00:01:19;5.77;;;3.90;;
78903;SDS011;68291;49.602;8.722;2023-06-14T00:03:50;5.20;;;3.70;;
78903;SDS011;68291;49.602;8.722;2023-06-14T00:06:33;4.17;;;3.77;;
78903;SDS011;68291;49.602;8.722;2023-06-14T00:09:10;4.20;;;3.80;;
78903;SDS011;68291;49.602;8.722;2023-06-14T00:11:44;4.57;;;3.93;;
78903;SDS011;68291;49.602;8.722;2023-06-14T00:17:17;5.33;;;3.70;;
78903;SDS011;68291;49.602;8.722;2023-06-14T00:19:59;4.90;;;3.67;;
78903;SDS011;68291;49.602;8.722;2023-06-14T00:22:39;4.43;;;3.93;;
78903;SDS011;68291;49.602;8.722;2023-06-14T00:25:28;6.63;;;4.00;;
78903;SDS011;68291;49.602;8.722;2023-06-14T00:28:17;6.50;;;3.60;;
78903;SDS011;68291;49.602;8.722;2023-06-14T00:31:13;5.20;;;3.67;;
78903;SDS011;68291;49.602;8.722;2023-06-14T00:34:09;6.17;;;3.83;;
78903;SDS011;68291;49.602;8.722;2023-06-14T00:37:00;7.43;;;4.00;;
78903;SDS011;68291;49.602;8.722;2023-06-14T00:39:32;6.50;;;4.00;;
78903;SDS011;68291;49.602;8.722;2023-06-14T00:42:08;4.10;;;3.53;;
78903;SDS011;68291;49.602;8.722;2023-06-14T00:45:05;5.13;;;3.80;;
78903;SDS011;68291;49.602;8.722;2023-06-14T00:47:50;4.07;;;3.67;;
78903;SDS011;68291;49.602;8.722;2023-06-14T00:50:31;5.43;;;3.83;;
78903;SDS011;68291;49.602;8.722;2023-06-14T00:53:10;5.00;;;3.63;;
78903;SDS011;68291;49.602;8.722;2023-06-14T00:55:54;5.37;;;3.83;;
78903;SDS011;68291;49.602;8.722;2023-06-14T00:58:50;5.07;;;3.83;;
78903;SDS011;68291;49.602;8.722;2023-06-14T01:01:34;6.43;;;4.43;;
78903;SDS011;68291;49.602;8.722;2023-06-14T01:07:46;5.07;;;4.00;;
78903;SDS011;68291;49.602;8.722;2023-06-14T01:10:53;5.77;;;3.90;;
78903;SDS011;68291;49.602;8.722;2023-06-14T01:13:33;5.40;;;3.83;;
78903;SDS011;68291;49.602;8.722;2023-06-14T01:16:32;4.30;;;3.90;;
78903;SDS011;68291;49.602;8.722;2023-06-14T01:19:28;5.03;;;4.00;;
78903;SDS011;68291;49.602;8.722;2023-06-14T01:24:59;5.27;;;4.00;;
78903;SDS011;68291;49.602;8.722;2023-06-14T01:28:04;4.50;;;4.10;;
78903;SDS011;68291;49.602;8.722;2023-06-14T01:30:44;4.13;;;3.73;;
78903;SDS011;68291;49.602;8.722;2023-06-14T01:33:39;4.50;;;4.07;;
78903;SDS011;68291;49.602;8.722;2023-06-14T01:36:33;6.17;;;3.70;;
78903;SDS011;68291;49.602;8.722;2023-06-14T01:39:16;5.30;;;4.10;;
78903;SDS011;68291;49.602;8.722;2023-06-14T01:45:14;4.43;;;3.80;;
78903;SDS011;68291;49.602;8.722;2023-06-14T01:48:08;4.90;;;4.30;;
78903;SDS011;68291;49.602;8.722;2023-06-14T01:50:48;4.90;;;4.33;;
78903;SDS011;68291;49.602;8.722;2023-06-14T01:53:19;4.40;;;3.83;;
78903;SDS011;68291;49.602;8.722;2023-06-14T01:55:54;6.03;;;3.63;;
78903;SDS011;68291;49.602;8.722;2023-06-14T02:02:17;4.07;;;3.67;;
78903;SDS011;68291;49.602;8.722;2023-06-14T02:04:55;7.43;;;3.87;;
78903;SDS011;68291;49.602;8.722;2023-06-14T02:07:46;4.03;;;3.63;;
78903;SDS011;68291;49.602;8.722;2023-06-14T02:10:36;4.27;;;3.87;;
78903;SDS011;68291;49.602;8.722;2023-06-14T02:13:26;9.17;;;3.97;;
78903;SDS011;68291;49.602;8.722;2023-06-14T02:16:18;7.17;;;4.73;;
78903;SDS011;68291;49.602;8.722;2023-06-14T02:18:55;5.47;;;4.00;;
78903;SDS011;68291;49.602;8.722;2023-06-14T02:21:41;5.40;;;4.07;;
78903;SDS011;68291;49.602;8.722;2023-06-14T02:24:18;5.67;;;4.20;;
78903;SDS011;68291;49.602;8.722;2023-06-14T02:27:09;6.83;;;4.00;;
78903;SDS011;68291;49.602;8.722;2023-06-14T02:29:49;4.53;;;4.07;;
78903;SDS011;68291;49.602;8.722;2023-06-14T02:32:40;3.60;;;3.30;;
78903;SDS011;68291;49.602;8.722;2023-06-14T02:35:18;4.67;;;3.77;;
78903;SDS011;68291;49.602;8.722;2023-06-14T02:38:02;6.57;;;4.53;;
78903;SDS011;68291;49.602;8.722;2023-06-14T02:40:58;5.80;;;4.57;;
78903;SDS011;68291;49.602;8.722;2023-06-14T02:43:54;7.87;;;3.80;;
78903;SDS011;68291;49.602;8.722;2023-06-14T02:46:28;10.17;;;4.20;;
78903;SDS011;68291;49.602;8.722;2023-06-14T02:49:17;5.33;;;4.00;;
78903;SDS011;68291;49.602;8.722;2023-06-14T02:52:05;6.93;;;3.73;;
78903;SDS011;68291;49.602;8.722;2023-06-14T02:54:41;6.20;;;3.60;;
78903;SDS011;68291;49.602;8.722;2023-06-14T02:57:22;4.53;;;3.80;;
78903;SDS011;68291;49.602;8.722;2023-06-14T03:00:08;4.97;;;3.80;;
78903;SDS011;68291;49.602;8.722;2023-06-14T03:02:49;5.10;;;4.00;;
78903;SDS011;68291;49.602;8.722;2023-06-14T03:05:45;5.87;;;3.83;;
78903;SDS011;68291;49.602;8.722;2023-06-14T03:08:22;6.30;;;3.67;;
78903;SDS011;68291;49.602;8.722;2023-06-14T03:11:18;5.10;;;4.07;;
78903;SDS011;68291;49.602;8.722;2023-06-14T03:14:13;5.03;;;4.03;;
78903;SDS011;68291;49.602;8.722;2023-06-14T03:16:47;4.73;;;3.70;;
78903;SDS011;68291;49.602;8.722;2023-06-14T03:19:28;4.97;;;3.97;;
78903;SDS011;68291;49.602;8.722;2023-06-14T03:22:26;4.10;;;3.70;;
78903;SDS011;68291;49.602;8.722;2023-06-14T03:24:56;7.27;;;3.50;;
78903;SDS011;68291;49.602;8.722;2023-06-14T03:27:35;4.77;;;3.67;;
78903;SDS011;68291;49.602;8.722;2023-06-14T03:30:14;5.10;;;4.00;;
78903;SDS011;68291;49.602;8.722;2023-06-14T03:32:48;7.40;;;3.77;;
78903;SDS011;68291;49.602;8.722;2023-06-14T03:35:23;5.47;;;4.03;;
78903;SDS011;68291;49.602;8.722;2023-06-14T03:41:20;7.37;;;3.77;;
78903;SDS011;68291;49.602;8.722;2023-06-14T03:43:51;8.30;;;3.83;;
78903;SDS011;68291;49.602;8.722;2023-06-14T03:46:31;9.67;;;3.67;;
78903;SDS011;68291;49.602;8.722;2023-06-14T03:49:13;7.67;;;4.20;;
78903;SDS011;68291;49.602;8.722;2023-06-14T03:52:04;7.50;;;3.77;;
78903;SDS011;68291;49.602;8.722;2023-06-14T03:55:02;8.63;;;3.87;;
78903;SDS011;68291;49.602;8.722;2023-06-14T03:57:56;4.80;;;4.13;;
78903;SDS011;68291;49.602;8.722;2023-06-14T04:00:51;6.57;;;3.70;;
78903;SDS011;68291;49.602;8.722;2023-06-14T04:03:30;6.63;;;4.30;;
78903;SDS011;68291;49.602;8.722;2023-06-14T04:06:11;7.57;;;4.50;;
78903;SDS011;68291;49.602;8.722;2023-06-14T04:08:55;4.63;;;3.93;;
78903;SDS011;68291;49.602;8.722;2023-06-14T04:14:40;5.67;;;4.10;;
78903;SDS011;68291;49.602;8.722;2023-06-14T04:17:27;7.17;;;3.80;;
78903;SDS011;68291;49.602;8.722;2023-06-14T04:20:15;6.63;;;4.17;;
78903;SDS011;68291;49.602;8.722;2023-06-14T04:22:57;4.23;;;3.83;;
78903;SDS011;68291;49.602;8.722;2023-06-14T04:25:40;6.87;;;3.90;;
78903;SDS011;68291;49.602;8.722;2023-06-14T04:28:23;6.00;;;4.23;;
78903;SDS011;68291;49.602;8.722;2023-06-14T04:31:01;4.73;;;4.30;;
78903;SDS011;68291;49.602;8.722;2023-06-14T04:33:37;5.57;;;4.20;;
78903;SDS011;68291;49.602;8.722;2023-06-14T04:36:20;6.23;;;4.03;;
78903;SDS011;68291;49.602;8.722;2023-06-14T04:39:10;7.43;;;4.40;;
78903;SDS011;68291;49.602;8.722;2023-06-14T04:41:55;5.57;;;4.20;;
78903;SDS011;68291;49.602;8.722;2023-06-14T04:44:45;4.33;;;3.93;;
78903;SDS011;68291;49.602;8.722;2023-06-14T04:47:42;4.70;;;4.20;;
78903;SDS011;68291;49.602;8.722;2023-06-14T04:50:35;7.13;;;4.07;;
78903;SDS011;68291;49.602;8.722;2023-06-14T04:53:09;5.57;;;4.23;;
78903;SDS011;68291;49.602;8.722;2023-06-14T04:55:42;5.60;;;4.20;;
78903;SDS011;68291;49.602;8.722;2023-06-14T04:58:26;5.90;;;3.97;;
78903;SDS011;68291;49.602;8.722;2023-06-14T05:01:08;4.73;;;3.80;;
78903;SDS011;68291;49.602;8.722;2023-06-14T05:03:50;5.43;;;3.90;;
78903;SDS011;68291;49.602;8.722;2023-06-14T05:06:37;8.53;;;4.33;;
78903;SDS011;68291;49.602;8.722;2023-06-14T05:09:21;7.17;;;3.80;;
78903;SDS011;68291;49.602;8.722;2023-06-14T05:11:53;6.33;;;3.97;;
78903;SDS011;68291;49.602;8.722;2023-06-14T05:14:43;7.67;;;3.93;;
78903;SDS011;68291;49.602;8.722;2023-06-14T05:17:21;5.57;;;4.30;;
78903;SDS011;68291;49.602;8.722;2023-06-14T05:20:01;5.80;;;4.30;;
78903;SDS011;68291;49.602;8.722;2023-06-14T05:22:42;6.70;;;4.37;;
78903;SDS011;68291;49.602;8.722;2023-06-14T05:25:20;6.03;;;4.03;;
78903;SDS011;68291;49.602;8.722;2023-06-14T05:28:03;6.17;;;4.30;;
78903;SDS011;68291;49.602;8.722;2023-06-14T05:30:43;4.57;;;3.73;;
78903;SDS011;68291;49.602;8.722;2023-06-14T05:33:25;6.20;;;4.20;;
78903;SDS011;68291;49.602;8.722;2023-06-14T05:35:58;6.77;;;3.77;;
78903;SDS011;68291;49.602;8.722;2023-06-14T05:38:57;4.87;;;4.03;;
78903;SDS011;68291;49.602;8.722;2023-06-14T05:41:48;4.53;;;4.03;;
78903;SDS011;68291;49.602;8.722;2023-06-14T05:44:39;8.93;;;4.23;;
78903;SDS011;68291;49.602;8.722;2023-06-14T05:47:10;9.57;;;4.07;;
78903;SDS011;68291;49.602;8.722;2023-06-14T05:49:55;4.40;;;4.00;;
78903;SDS011;68291;49.602;8.722;2023-06-14T05:52:46;6.43;;;4.40;;
78903;SDS011;68291;49.602;8.722;2023-06-14T05:55:42;4.90;;;4.33;;
78903;SDS011;68291;49.602;8.722;2023-06-14T05:58:37;4.70;;;4.20;;
78903;SDS011;68291;49.602;8.722;2023-06-14T06:01:13;6.73;;;4.43;;
78903;SDS011;68291;49.602;8.722;2023-06-14T06:04:09;4.67;;;3.87;;
78903;SDS011;68291;49.602;8.722;2023-06-14T06:07:10;7.97;;;4.07;;
78903;SDS011;68291;49.602;8.722;2023-06-14T06:09:54;7.43;;;3.77;;
78903;SDS011;68291;49.602;8.722;2023-06-14T06:12:25;5.47;;;3.77;;
78903;SDS011;68291;49.602;8.722;2023-06-14T06:15:05;6.17;;;3.80;;
78903;SDS011;68291;49.602;8.722;2023-06-14T06:17:45;7.50;;;4.00;;
78903;SDS011;68291;49.602;8.722;2023-06-14T06:20:26;7.07;;;4.00;;
78903;SDS011;68291;49.602;8.722;2023-06-14T06:23:07;7.67;;;4.00;;
78903;SDS011;68291;49.602;8.722;2023-06-14T06:25:47;7.60;;;4.40;;
78903;SDS011;68291;49.602;8.722;2023-06-14T06:28:27;6.80;;;3.80;;
78903;SDS011;68291;49.602;8.722;2023-06-14T06:31:06;7.10;;;4.40;;
78903;SDS011;68291;49.602;8.722;2023-06-14T06:33:51;4.00;;;3.60;;
78903;SDS011;68291;49.602;8.722;2023-06-14T06:36:43;8.17;;;4.20;;
78903;SDS011;68291;49.602;8.722;2023-06-14T06:39:30;3.93;;;3.53;;
78903;SDS011;68291;49.602;8.722;2023-06-14T06:42:06;4.37;;;3.97;;
78903;SDS011;68291;49.602;8.722;2023-06-14T06:44:46;3.90;;;3.60;;
78903;SDS011;68291;49.602;8.722;2023-06-14T06:47:19;4.27;;;3.67;;
78903;SDS011;68291;49.602;8.722;2023-06-14T06:50:05;7.10;;;3.93;;
78903;SDS011;68291;49.602;8.722;2023-06-14T06:52:47;5.07;;;3.57;;
78903;SDS011;68291;49.602;8.722;2023-06-14T06:55:20;5.37;;;4.00;;
78903;SDS011;68291;49.602;8.722;2023-06-14T06:58:14;5.20;;;3.87;;
78903;SDS011;68291;49.602;8.722;2023-06-14T07:00:50;6.07;;;3.40;;
78903;SDS011;68291;49.602;8.722;2023-06-14T07:03:38;4.70;;;3.60;;
78903;SDS011;68291;49.602;8.722;2023-06-14T07:06:18;5.93;;;3.60;;
78903;SDS011;68291;49.602;8.722;2023-06-14T07:09:03;7.93;;;3.80;;
78903;SDS011;68291;49.602;8.722;2023-06-14T07:15:09;4.00;;;3.60;;
78903;SDS011;68291;49.602;8.722;2023-06-14T07:17:50;5.47;;;3.50;;
78903;SDS011;68291;49.602;8.722;2023-06-14T07:20:30;4.60;;;3.80;;
78903;SDS011;68291;49.602;8.722;2023-06-14T07:23:35;4.10;;;3.70;;
78903;SDS011;68291;49.602;8.722;2023-06-14T07:26:07;4.57;;;3.47;;
78903;SDS011;68291;49.602;8.722;2023-06-14T07:29:00;5.33;;;3.40;;
78903;SDS011;68291;49.602;8.722;2023-06-14T07:31:42;6.13;;;4.00;;
78903;SDS011;68291;49.602;8.722;2023-06-14T07:34:33;6.60;;;3.70;;
78903;SDS011;68291;49.602;8.722;2023-06-14T07:37:27;4.13;;;3.30;;
78903;SDS011;68291;49.602;8.722;2023-06-14T07:40:10;5.07;;;3.80;;
78903;SDS011;68291;49.602;8.722;2023-06-14T07:42:58;6.23;;;4.10;;
78903;SDS011;68291;49.602;8.722;2023-06-14T07:45:52;4.30;;;3.67;;
78903;SDS011;68291;49.602;8.722;2023-06-14T07:48:39;4.13;;;3.63;;
78903;SDS011;68291;49.602;8.722;2023-06-14T07:51:12;7.20;;;3.53;;
78903;SDS011;68291;49.602;8.722;2023-06-14T07:53:59;4.53;;;3.53;;
78903;SDS011;68291;49.602;8.722;2023-06-14T07:56:44;4.13;;;3.70;;
78903;SDS011;68291;49.602;8.722;2023-06-14T07:59:30;4.30;;;3.30;;
78903;SDS011;68291;49.602;8.722;2023-06-14T08:02:25;5.90;;;3.50;;
78903;SDS011;68291;49.602;8.722;2023-06-14T08:05:15;6.80;;;3.83;;
78903;SDS011;68291;49.602;8.722;2023-06-14T08:07:48;5.13;;;3.60;;
78903;SDS011;68291;49.602;8.722;2023-06-14T08:10:22;5.43;;;3.77;;
78903;SDS011;68291;49.602;8.722;2023-06-14T08:12:57;5.33;;;3.93;;
78903;SDS011;68291;49.602;8.722;2023-06-14T08:15:28;6.50;;;4.00;;
78903;SDS011;68291;49.602;8.722;2023-06-14T08:18:06;5.10;;;3.80;;
78903;SDS011;68291;49.602;8.722;2023-06-14T08:20:51;5.70;;;3.60;;
78903;SDS011;68291;49.602;8.722;2023-06-14T08:23:40;4.53;;;3.77;;
78903;SDS011;68291;49.602;8.722;2023-06-14T08:26:21;8.17;;;4.07;;
78903;SDS011;68291;49.602;8.722;2023-06-14T08:28:58;5.10;;;3.60;;
78903;SDS011;68291;49.602;8.722;2023-06-14T08:31:48;6.43;;;3.63;;
78903;SDS011;68291;49.602;8.722;2023-06-14T08:34:28;5.40;;;3.73;;
78903;SDS011;68291;49.602;8.722;2023-06-14T08:37:04;4.43;;;3.90;;
78903;SDS011;68291;49.602;8.722;2023-06-14T08:39:50;4.33;;;3.93;;
78903;SDS011;68291;49.602;8.722;2023-06-14T08:42:35;3.97;;;3.57;;
78903;SDS011;68291;49.602;8.722;2023-06-14T08:45:20;6.10;;;3.50;;
78903;SDS011;68291;49.602;8.722;2023-06-14T08:47:58;5.33;;;3.67;;
78903;SDS011;68291;49.602;8.722;2023-06-14T08:50:48;6.10;;;3.33;;
78903;SDS011;68291;49.602;8.722;2023-06-14T08:53:34;4.17;;;3.67;;
78903;SDS011;68291;49.602;8.722;2023-06-14T08:56:31;4.70;;;3.53;;
78903;SDS011;68291;49.602;8.722;2023-06-14T08:59:11;4.67;;;3.73;;
78903;SDS011;68291;49.602;8.722;2023-06-14T09:02:01;4.57;;;3.23;;
78903;SDS011;68291;49.602;8.722;2023-06-14T09:04:57;4.00;;;3.20;;
78903;SDS011;68291;49.602;8.722;2023-06-14T09:10:36;4.83;;;3.43;;
78903;SDS011;68291;49.602;8.722;2023-06-14T09:13:14;3.77;;;3.37;;
78903;SDS011;68291;49.602;8.722;2023-06-14T09:16:10;3.30;;;2.87;;
78903;SDS011;68291;49.602;8.722;2023-06-14T09:18:58;4.83;;;3.10;;
78903;SDS011;68291;49.602;8.722;2023-06-14T09:21:33;5.77;;;2.87;;
78903;SDS011;68291;49.602;8.722;2023-06-14T09:24:35;7.17;;;2.87;;
78903;SDS011;68291;49.602;8.722;2023-06-14T09:27:14;5.40;;;2.67;;
78903;SDS011;68291;49.602;8.722;2023-06-14T09:30:02;3.93;;;3.10;;
78903;SDS011;68291;49.602;8.722;2023-06-14T09:33:05;4.97;;;2.73;;
78903;SDS011;68291;49.602;8.722;2023-06-14T09:35:37;4.73;;;2.87;;
78903;SDS011;68291;49.602;8.722;2023-06-14T09:38:26;4.33;;;2.77;;
78903;SDS011;68291;49.602;8.722;2023-06-14T09:41:02;3.17;;;2.87;;
78903;SDS011;68291;49.602;8.722;2023-06-14T09:43:55;3.63;;;3.00;;
78903;SDS011;68291;49.602;8.722;2023-06-14T09:46:28;7.27;;;2.93;;
78903;SDS011;68291;49.602;8.722;2023-06-14T09:49:05;4.03;;;2.90;;
78903;SDS011;68291;49.602;8.722;2023-06-14T09:51:49;4.10;;;3.20;;
78903;SDS011;68291;49.602;8.722;2023-06-14T09:54:27;7.30;;;2.67;;
78903;SDS011;68291;49.602;8.722;2023-06-14T10:00:12;5.80;;;3.00;;
78903;SDS011;68291;49.602;8.722;2023-06-14T10:02:56;4.07;;;2.67;;
78903;SDS011;68291;49.602;8.722;2023-06-14T10:05:48;4.63;;;2.83;;
78903;SDS011;68291;49.602;8.722;2023-06-14T10:08:27;2.80;;;2.60;;
78903;SDS011;68291;49.602;8.722;2023-06-14T10:11:17;6.23;;;3.03;;
78903;SDS011;68291;49.602;8.722;2023-06-14T10:17:26;7.30;;;3.00;;
78903;SDS011;68291;49.602;8.722;2023-06-14T10:20:15;3.87;;;3.00;;
78903;SDS011;68291;49.602;8.722;2023-06-14T10:23:00;3.40;;;3.00;;
78903;SDS011;68291;49.602;8.722;2023-06-14T10:25:54;3.17;;;2.87;;
78903;SDS011;68291;49.602;8.722;2023-06-14T10:28:57;3.13;;;2.90;;
78903;SDS011;68291;49.602;8.722;2023-06-14T10:31:44;5.07;;;2.90;;
78903;SDS011;68291;49.602;8.722;2023-06-14T10:34:29;4.80;;;3.17;;
78903;SDS011;68291;49.602;8.722;2023-06-14T10:37:26;5.07;;;3.30;;
78903;SDS011;68291;49.602;8.722;2023-06-14T10:39:58;3.93;;;3.10;;
78903;SDS011;68291;49.602;8.722;2023-06-14T10:42:43;5.87;;;2.90;;
78903;SDS011;68291;49.602;8.722;2023-06-14T10:48:50;6.17;;;2.77;;
78903;SDS011;68291;49.602;8.722;2023-06-14T10:51:38;3.37;;;3.07;;
78903;SDS011;68291;49.602;8.722;2023-06-14T10:54:29;2.90;;;2.60;;
78903;SDS011;68291;49.602;8.722;2023-06-14T10:57:12;3.67;;;3.27;;
78903;SDS011;68291;49.602;8.722;2023-06-14T11:00:01;3.43;;;2.87;;
78903;SDS011;68291;49.602;8.722;2023-06-14T11:06:34;4.20;;;2.80;;
78903;SDS011;68291;49.602;8.722;2023-06-14T11:09:54;4.17;;;3.17;;
78903;SDS011;68291;49.602;8.722;2023-06-14T11:12:59;4.73;;;3.07;;
78903;SDS011;68291;49.602;8.722;2023-06-14T11:15:44;4.40;;;3.00;;
78903;SDS011;68291;49.602;8.722;2023-06-14T11:18:22;3.97;;;2.93;;
78903;SDS011;68291;49.602;8.722;2023-06-14T11:20:58;4.53;;;2.70;;
78903;SDS011;68291;49.602;8.722;2023-06-14T11:23:43;4.70;;;3.03;;
78903;SDS011;68291;49.602;8.722;2023-06-14T11:26:46;3.00;;;2.70;;
78903;SDS011;68291;49.602;8.722;2023-06-14T11:29:19;2.87;;;2.60;;
78903;SDS011;68291;49.602;8.722;2023-06-14T11:32:00;5.30;;;2.70;;
78903;SDS011;68291;49.602;8.722;2023-06-14T11:34:32;3.27;;;2.97;;
78903;SDS011;68291;49.602;8.722;2023-06-14T11:37:11;6.10;;;3.07;;
78903;SDS011;68291;49.602;8.722;2023-06-14T11:39:44;6.43;;;2.90;;
78903;SDS011;68291;49.602;8.722;2023-06-14T11:42:24;2.97;;;2.70;;
78903;SDS011;68291;49.602;8.722;2023-06-14T11:44:58;6.27;;;2.70;;
78903;SDS011;68291;49.602;8.722;2023-06-14T11:47:48;4.37;;;2.67;;
78903;SDS011;68291;49.602;8.722;2023-06-14T11:50:28;3.43;;;2.80;;
78903;SDS011;68291;49.602;8.722;2023-06-14T11:53:09;3.27;;;2.70;;
78903;SDS011;68291;49.602;8.722;2023-06-14T11:55:53;2.77;;;2.50;;
78903;SDS011;68291;49.602;8.722;2023-06-14T11:58:30;4.87;;;2.70;;
78903;SDS011;68291;49.602;8.722;2023-06-14T12:01:14;4.37;;;2.77;;
78903;SDS011;68291;49.602;8.722;2023-06-14T12:03:55;3.30;;;2.33;;
78903;SDS011;68291;49.602;8.722;2023-06-14T12:06:50;4.87;;;2.63;;
78903;SDS011;68291;49.602;8.722;2023-06-14T12:09:28;4.37;;;2.93;;
78903;SDS011;68291;49.602;8.722;2023-06-14T12:12:25;3.53;;;2.70;;
78903;SDS011;68291;49.602;8.722;2023-06-14T12:15:13;3.70;;;3.03;;
78903;SDS011;68291;49.602;8.722;2023-06-14T12:17:51;3.00;;;2.70;;
78903;SDS011;68291;49.602;8.722;2023-06-14T12:20:51;3.03;;;2.73;;
78903;SDS011;68291;49.602;8.722;2023-06-14T12:23:23;3.10;;;2.80;;
78903;SDS011;68291;49.602;8.722;2023-06-14T12:26:11;4.00;;;2.67;;
78903;SDS011;68291;49.602;8.722;2023-06-14T12:28:58;3.53;;;2.63;;
78903;SDS011;68291;49.602;8.722;2023-06-14T12:31:46;4.90;;;2.90;;
78903;SDS011;68291;49.602;8.722;2023-06-14T12:34:31;3.83;;;2.70;;
78903;SDS011;68291;49.602;8.722;2023-06-14T12:37:04;3.50;;;2.90;;
78903;SDS011;68291;49.602;8.722;2023-06-14T12:39:36;3.37;;;3.00;;
78903;SDS011;68291;49.602;8.722;2023-06-14T12:42:21;3.03;;;2.70;;
78903;SDS011;68291;49.602;8.722;2023-06-14T12:45:12;2.93;;;2.73;;
78903;SDS011;68291;49.602;8.722;2023-06-14T12:48:00;6.57;;;2.93;;
78903;SDS011;68291;49.602;8.722;2023-06-14T12:50:42;4.40;;;2.80;;
78903;SDS011;68291;49.602;8.722;2023-06-14T12:53:31;2.70;;;2.50;;
78903;SDS011;68291;49.602;8.722;2023-06-14T12:56:27;2.63;;;2.43;;
78903;SDS011;68291;49.602;8.722;2023-06-14T12:59:22;4.13;;;3.07;;
78903;SDS011;68291;49.602;8.722;2023-06-14T13:02:19;3.10;;;2.80;;
78903;SDS011;68291;49.602;8.722;2023-06-14T13:05:04;3.20;;;2.90;;
78903;SDS011;68291;49.602;8.722;2023-06-14T13:07:50;4.03;;;3.00;;
78903;SDS011;68291;49.602;8.722;2023-06-14T13:10:25;3.23;;;2.90;;
78903;SDS011;68291;49.602;8.722;2023-06-14T13:13:06;3.65;;;3.10;;
78903;SDS011;68291;49.602;8.722;2023-06-14T13:15:39;4.20;;;2.70;;
78903;SDS011;68291;49.602;8.722;2023-06-14T13:18:30;3.13;;;2.67;;
78903;SDS011;68291;49.602;8.722;2023-06-14T13:21:08;3.03;;;2.50;;
78903;SDS011;68291;49.602;8.722;2023-06-14T13:23:48;4.40;;;3.13;;
78903;SDS011;68291;49.602;8.722;2023-06-14T13:26:23;3.17;;;2.60;;
78903;SDS011;68291;49.602;8.722;2023-06-14T13:28:56;3.50;;;2.80;;
78903;SDS011;68291;49.602;8.722;2023-06-14T13:31:41;4.33;;;2.70;;
78903;SDS011;68291;49.602;8.722;2023-06-14T13:37:24;8.50;;;3.60;;
78903;SDS011;68291;49.602;8.722;2023-06-14T13:40:08;4.10;;;3.03;;
78903;SDS011;68291;49.602;8.722;2023-06-14T13:42:56;4.43;;;2.70;;
78903;SDS011;68291;49.602;8.722;2023-06-14T13:45:41;6.17;;;3.07;;
78903;SDS011;68291;49.602;8.722;2023-06-14T13:48:30;3.10;;;2.60;;
78903;SDS011;68291;49.602;8.722;2023-06-14T13:51:27;3.30;;;3.03;;
78903;SDS011;68291;49.602;8.722;2023-06-14T13:54:04;3.90;;;2.70;;
78903;SDS011;68291;49.602;8.722;2023-06-14T13:56:49;3.90;;;2.90;;
78903;SDS011;68291;49.602;8.722;2023-06-14T13:59:28;2.95;;;2.70;;
78903;SDS011;68291;49.602;8.722;2023-06-14T14:02:09;4.95;;;2.90;;
78903;SDS011;68291;49.602;8.722;2023-06-14T14:04:42;3.70;;;2.77;;
78903;SDS011;68291;49.602;8.722;2023-06-14T14:07:36;6.00;;;2.97;;
78903;SDS011;68291;49.602;8.722;2023-06-14T14:10:23;3.63;;;2.60;;
78903;SDS011;68291;49.602;8.722;2023-06-14T14:13:05;3.73;;;2.77;;
78903;SDS011;68291;49.602;8.722;2023-06-14T14:15:56;2.97;;;2.70;;
78903;SDS011;68291;49.602;8.722;2023-06-14T14:18:43;3.80;;;2.90;;
78903;SDS011;68291;49.602;8.722;2023-06-14T14:21:32;3.53;;;2.75;;
78903;SDS011;68291;49.602;8.722;2023-06-14T14:27:09;4.32;;;2.80;;
78903;SDS011;68291;49.602;8.722;2023-06-14T14:29:44;4.07;;;2.95;;
78903;SDS011;68291;49.602;8.722;2023-06-14T14:32:20;3.05;;;2.80;;
78903;SDS011;68291;49.602;8.722;2023-06-14T14:35:06;3.80;;;2.35;;
78903;SDS011;68291;49.602;8.722;2023-06-14T14:37:54;2.55;;;2.35;;
78903;SDS011;68291;49.602;8.722;2023-06-14T14:41:01;2.90;;;2.58;;
78903;SDS011;68291;49.602;8.722;2023-06-14T14:43:40;6.35;;;2.50;;
78903;SDS011;68291;49.602;8.722;2023-06-14T14:46:18;2.63;;;2.42;;
78903;SDS011;68291;49.602;8.722;2023-06-14T14:48:59;2.95;;;2.50;;
78903;SDS011;68291;49.602;8.722;2023-06-14T14:51:51;7.53;;;2.63;;
78903;SDS011;68291;49.602;8.722;2023-06-14T14:54:52;2.70;;;2.50;;
78903;SDS011;68291;49.602;8.722;2023-06-14T14:57:43;2.58;;;2.30;;
78903;SDS011;68291;49.602;8.722;2023-06-14T15:00:19;2.72;;;2.45;;
78903;SDS011;68291;49.602;8.722;2023-06-14T15:03:06;5.82;;;2.70;;
78903;SDS011;68291;49.602;8.722;2023-06-14T15:05:52;4.65;;;2.45;;
78903;SDS011;68291;49.602;8.722;2023-06-14T15:08:25;6.32;;;2.47;;
78903;SDS011;68291;49.602;8.722;2023-06-14T15:11:11;6.65;;;2.55;;
78903;SDS011;68291;49.602;8.722;2023-06-14T15:16:50;5.63;;;2.45;;
78903;SDS011;68291;49.602;8.722;2023-06-14T15:19:34;4.25;;;2.80;;
78903;SDS011;68291;49.602;8.722;2023-06-14T15:22:15;2.97;;;2.67;;
78903;SDS011;68291;49.602;8.722;2023-06-14T15:25:00;3.60;;;2.45;;
78903;SDS011;68291;49.602;8.722;2023-06-14T15:27:55;3.55;;;2.45;;
78903;SDS011;68291;49.602;8.722;2023-06-14T15:30:43;4.07;;;2.50;;
78903;SDS011;68291;49.602;8.722;2023-06-14T15:33:29;5.55;;;2.58;;
78903;SDS011;68291;49.602;8.722;2023-06-14T15:36:09;2.75;;;2.50;;
78903;SDS011;68291;49.602;8.722;2023-06-14T15:38:45;4.20;;;2.50;;
78903;SDS011;68291;49.602;8.722;2023-06-14T15:41:36;2.78;;;2.20;;
78903;SDS011;68291;49.602;8.722;2023-06-14T15:44:24;5.00;;;2.30;;
78903;SDS011;68291;49.602;8.722;2023-06-14T15:47:27;3.10;;;2.67;;
78903;SDS011;68291;49.602;8.722;2023-06-14T15:50:05;4.07;;;2.47;;
78903;SDS011;68291;49.602;8.722;2023-06-14T15:53:00;2.50;;;2.30;;
78903;SDS011;68291;49.602;8.722;2023-06-14T15:55:52;4.18;;;2.40;;
78903;SDS011;68291;49.602;8.722;2023-06-14T15:58:27;2.45;;;2.20;;
78903;SDS011;68291;49.602;8.722;2023-06-14T16:01:14;4.13;;;2.40;;
78903;SDS011;68291;49.602;8.722;2023-06-14T16:03:50;2.30;;;2.10;;
78903;SDS011;68291;49.602;8.722;2023-06-14T16:06:34;3.67;;;2.28;;
78903;SDS011;68291;49.602;8.722;2023-06-14T16:09:22;3.85;;;2.50;;
78903;SDS011;68291;49.602;8.722;2023-06-14T16:12:17;4.93;;;2.40;;
78903;SDS011;68291;49.602;8.722;2023-06-14T16:15:09;3.17;;;2.28;;
78903;SDS011;68291;49.602;8.722;2023-06-14T16:17:49;2.40;;;2.20;;
78903;SDS011;68291;49.602;8.722;2023-06-14T16:20:42;3.17;;;2.35;;
78903;SDS011;68291;49.602;8.722;2023-06-14T16:23:25;4.90;;;2.20;;
78903;SDS011;68291;49.602;8.722;2023-06-14T16:26:11;3.17;;;2.22;;
78903;SDS011;68291;49.602;8.722;2023-06-14T16:29:06;3.08;;;2.25;;
78903;SDS011;68291;49.602;8.722;2023-06-14T16:31:41;3.22;;;2.20;;
78903;SDS011;68291;49.602;8.722;2023-06-14T16:34:27;3.65;;;2.33;;
78903;SDS011;68291;49.602;8.722;2023-06-14T16:37:43;3.78;;;2.75;;
78903;SDS011;68291;49.602;8.722;2023-06-14T16:40:37;3.25;;;2.13;;
78903;SDS011;68291;49.602;8.722;2023-06-14T16:43:21;2.45;;;2.22;;
78903;SDS011;68291;49.602;8.722;2023-06-14T16:46:02;5.30;;;2.17;;
78903;SDS011;68291;49.602;8.722;2023-06-14T16:48:46;4.75;;;1.98;;
78903;SDS011;68291;49.602;8.722;2023-06-14T16:51:44;4.72;;;2.20;;
78903;SDS011;68291;49.602;8.722;2023-06-14T16:57:47;5.60;;;2.00;;
78903;SDS011;68291;49.602;8.722;2023-06-14T17:00:19;3.10;;;2.20;;
78903;SDS011;68291;49.602;8.722;2023-06-14T17:03:16;2.33;;;2.10;;
78903;SDS011;68291;49.602;8.722;2023-06-14T17:06:08;2.85;;;2.08;;
78903;SDS011;68291;49.602;8.722;2023-06-14T17:08:47;4.25;;;2.17;;
78903;SDS011;68291;49.602;8.722;2023-06-14T17:11:40;2.72;;;2.45;;
78903;SDS011;68291;49.602;8.722;2023-06-14T17:14:26;2.53;;;2.00;;
78903;SDS011;68291;49.602;8.722;2023-06-14T17:17:05;2.17;;;2.08;;
78903;SDS011;68291;49.602;8.722;2023-06-14T17:19:49;5.45;;;2.28;;
78903;SDS011;68291;49.602;8.722;2023-06-14T17:22:30;3.53;;;1.98;;
78903;SDS011;68291;49.602;8.722;2023-06-14T17:25:03;2.55;;;1.92;;
78903;SDS011;68291;49.602;8.722;2023-06-14T17:27:59;2.42;;;2.22;;